createdAt,value
2018-02-21T17:42:09.671Z,-0.1
2018-02-21T17:43:08.887Z,-0.1
2018-02-21T17:44:07.719Z,-0.1
2018-02-21T17:45:06.771Z,-0.1
2018-02-21T17:46:05.657Z,0
2018-02-21T17:47:04.975Z,0
2018-02-21T17:48:03.467Z,0
2018-02-21T17:49:02.460Z,0
2018-02-21T17:50:01.461Z,0
2018-02-21T17:51:00.573Z,0
2018-02-21T17:51:59.574Z,0
2018-02-21T17:52:58.689Z,0
2018-02-21T17:53:57.682Z,0
2018-02-21T17:54:56.283Z,0
2018-02-21T17:55:55.386Z,0.1
2018-02-21T17:56:54.384Z,0.1
2018-02-21T17:57:53.201Z,0
2018-02-21T17:58:52.090Z,0.1
2018-02-21T17:59:51.086Z,0
2018-02-21T18:00:50.084Z,0
2018-02-21T18:01:49.294Z,0.1
2018-02-21T18:02:48.294Z,0.1
2018-02-21T18:03:46.897Z,0
2018-02-21T18:04:46.004Z,0
2018-02-21T18:05:44.902Z,0
2018-02-21T18:06:44.118Z,0
2018-02-21T18:07:43.123Z,0
2018-02-21T18:08:13.431Z,0
2018-02-21T18:08:43.850Z,0
2018-02-21T18:09:14.053Z,0
2018-02-21T18:11:38.617Z,0
2018-02-21T18:12:37.721Z,0
2018-02-21T18:13:36.715Z,0
2018-02-21T18:14:35.941Z,0
2018-02-21T18:15:34.761Z,0
2018-02-21T18:16:33.669Z,0
2018-02-21T18:17:32.789Z,0
2018-02-21T18:19:30.284Z,0
2018-02-21T18:20:00.420Z,0
2018-02-21T18:20:30.521Z,0
2018-02-21T18:21:28.015Z,0
2018-02-21T18:22:27.232Z,-0.1
2018-02-21T18:23:26.341Z,-0.1
2018-02-21T18:24:25.344Z,-0.1
2018-02-21T18:25:23.951Z,-0.2
2018-02-21T18:26:22.956Z,-0.2
2018-02-21T18:27:22.173Z,-0.2
2018-02-21T18:28:20.887Z,-0.3
2018-02-21T18:29:20.006Z,-0.3
2018-02-21T18:30:18.831Z,-0.3
2018-02-21T18:31:17.734Z,-0.3
2018-02-21T18:32:16.842Z,-0.3
2018-02-21T18:33:15.665Z,-0.3
2018-02-21T18:34:14.882Z,-0.4
2018-02-21T18:35:13.697Z,-0.4
2018-02-21T18:36:12.864Z,-0.4
2018-02-21T18:37:11.782Z,-0.4
2018-02-21T18:38:10.385Z,-0.3
2018-02-21T18:39:09.720Z,-0.4
2018-02-21T18:40:08.534Z,-0.4
2018-02-21T18:43:05.354Z,-0.3
2018-02-21T18:44:04.532Z,-0.3
2018-02-21T18:46:01.927Z,-0.3
2018-02-21T18:47:00.865Z,-0.3
2018-02-21T18:48:00.082Z,-0.3
2018-02-21T18:48:59.086Z,-0.4
2018-02-21T18:49:57.685Z,-0.4
2018-02-21T18:50:56.682Z,-0.4
2018-02-21T18:51:55.897Z,-0.4
2018-02-21T18:52:54.788Z,-0.4
2018-02-21T18:53:53.396Z,-0.4
2018-02-21T18:54:52.604Z,-0.4
2018-02-21T18:55:51.708Z,-0.5
2018-02-21T18:56:50.922Z,-0.5
2018-02-21T18:57:49.645Z,-0.5
2018-02-21T18:58:48.248Z,-0.5
2018-02-21T18:59:47.137Z,-0.5
2018-02-21T19:00:17.556Z,-0.5
2018-02-21T19:00:47.990Z,-0.5
2018-02-21T19:01:45.586Z,-0.5
2018-02-21T19:03:42.963Z,-0.6
2018-02-21T19:04:42.361Z,-0.6
2018-02-21T19:05:40.959Z,-0.6
2018-02-21T19:06:40.173Z,-0.6
2018-02-21T19:07:38.882Z,-0.6
2018-02-21T19:08:37.884Z,-0.6
2018-02-21T19:09:37.110Z,-0.6
2018-02-21T19:11:34.888Z,-0.6
2018-02-21T19:12:33.491Z,-0.6
2018-02-21T19:13:32.714Z,-0.6
2018-02-21T19:14:31.846Z,-0.6
2018-02-21T19:15:30.347Z,-0.6
2018-02-21T19:17:28.660Z,-0.6
2018-02-21T19:18:27.489Z,-0.6
2018-02-21T19:19:26.273Z,-0.6
2018-02-21T19:20:25.492Z,-0.6
2018-02-21T19:21:24.614Z,-0.6
2018-02-21T19:22:23.214Z,-0.6
2018-02-21T19:23:22.109Z,-0.6
2018-02-21T19:24:21.155Z,-0.6
2018-02-21T19:25:20.151Z,-0.6
2018-02-21T19:26:18.760Z,-0.6
2018-02-21T19:27:18.190Z,-0.6
2018-02-21T19:28:16.690Z,-0.6
2018-02-21T19:29:15.895Z,-0.6
2018-02-21T19:30:14.892Z,-0.6
2018-02-21T19:31:14.137Z,-0.6
2018-02-21T19:32:12.683Z,-0.5
2018-02-21T19:33:11.782Z,-0.5
2018-02-21T19:34:10.497Z,-0.5
2018-02-21T19:36:08.589Z,-0.5
2018-02-21T19:37:07.758Z,-0.5
2018-02-21T19:38:06.663Z,-0.5
2018-02-21T19:39:05.165Z,-0.5
2018-02-21T19:40:04.275Z,-0.5
2018-02-21T19:40:34.699Z,-0.5
2018-02-21T19:42:01.994Z,-0.5
2018-02-21T19:43:01.096Z,-0.5
2018-02-21T19:44:00.199Z,-0.6
2018-02-21T19:44:58.693Z,-0.5
2018-02-21T19:45:57.793Z,-0.5
2018-02-21T19:46:56.789Z,-0.6
2018-02-21T19:47:55.899Z,-0.6
2018-02-21T19:48:55.002Z,-0.6
2018-02-21T19:49:53.712Z,-0.5
2018-02-21T19:50:52.603Z,-0.6
2018-02-21T19:51:51.925Z,-0.5
2018-02-21T19:52:50.631Z,-0.5
2018-02-21T19:53:49.527Z,-0.5
2018-02-21T19:54:48.530Z,-0.5
2018-02-21T19:55:47.128Z,-0.5
2018-02-21T19:56:17.337Z,-0.5
2018-02-21T19:57:45.124Z,-0.5
2018-02-21T19:59:43.000Z,-0.5
2018-02-21T20:00:41.999Z,-0.5
2018-02-21T20:01:41.003Z,-0.4
2018-02-21T20:02:40.221Z,-0.4
2018-02-21T20:03:38.934Z,-0.4
2018-02-21T20:04:38.150Z,-0.4
2018-02-21T20:05:36.867Z,-0.4
2018-02-21T20:06:35.585Z,-0.4
2018-02-21T20:07:34.934Z,-0.3
2018-02-21T20:08:33.831Z,-0.3
2018-02-21T20:09:32.325Z,-0.3
2018-02-21T20:10:31.427Z,-0.3
2018-02-21T20:11:30.534Z,-0.3
2018-02-21T20:12:29.531Z,-0.4
2018-02-21T20:13:28.140Z,-0.4
2018-02-21T20:14:27.134Z,-0.4
2018-02-21T20:16:25.334Z,-0.3
2018-02-21T20:17:23.827Z,-0.4
2018-02-21T20:18:23.144Z,-0.3
2018-02-21T20:19:22.252Z,-0.3
2018-02-21T20:20:21.136Z,-0.3
2018-02-21T20:21:19.740Z,-0.3
2018-02-21T20:22:18.963Z,-0.3
2018-02-21T20:23:18.074Z,-0.3
2018-02-21T20:24:16.910Z,-0.3
2018-02-21T20:26:14.771Z,-0.4
2018-02-21T20:27:13.379Z,-0.4
2018-02-21T20:28:12.377Z,-0.4
2018-02-21T20:29:11.600Z,-0.4
2018-02-21T20:30:10.832Z,-0.4
2018-02-21T20:31:09.606Z,-0.4
2018-02-21T20:32:08.110Z,-0.4
2018-02-21T20:33:07.226Z,-0.4
2018-02-21T20:34:06.346Z,-0.4
2018-02-21T20:35:05.172Z,-0.4
2018-02-21T20:36:03.788Z,-0.4
2018-02-21T20:37:02.896Z,-0.4
2018-02-21T20:37:33.427Z,-0.4
2018-02-21T20:38:03.741Z,-0.4
2018-02-21T20:39:00.727Z,-0.4
2018-02-21T20:40:58.735Z,-0.4
2018-02-21T20:41:57.956Z,-0.4
2018-02-21T20:42:56.670Z,-0.4
2018-02-21T20:43:55.776Z,-0.4
2018-02-21T20:44:54.388Z,-0.4
2018-02-21T20:45:53.391Z,-0.4
2018-02-21T20:46:52.399Z,-0.4
2018-02-21T20:47:51.333Z,-0.4
2018-02-21T20:48:50.444Z,-0.5
2018-02-21T20:49:49.258Z,-0.4
2018-02-21T20:50:48.367Z,-0.4
2018-02-21T20:52:46.351Z,-0.4
2018-02-21T20:53:45.056Z,-0.4
2018-02-21T20:54:44.051Z,-0.4
2018-02-21T20:55:43.261Z,-0.4
2018-02-21T20:56:41.860Z,-0.4
2018-02-21T20:57:40.962Z,-0.4
2018-02-21T20:58:39.757Z,-0.4
2018-02-21T20:59:38.860Z,-0.4
2018-02-21T21:00:37.859Z,-0.5
2018-02-21T21:01:36.354Z,-0.5
2018-02-21T21:02:35.858Z,-0.5
2018-02-21T21:03:34.570Z,-0.5
2018-02-21T21:04:33.388Z,-0.5
2018-02-21T21:05:32.488Z,-0.5
2018-02-21T21:06:31.486Z,-0.6
2018-02-21T21:07:30.590Z,-0.6
2018-02-21T21:08:29.402Z,-0.6
2018-02-21T21:09:28.112Z,-0.6
2018-02-21T21:10:27.102Z,-0.6
2018-02-21T21:11:26.208Z,-0.6
2018-02-21T21:12:25.314Z,-0.6
2018-02-21T21:13:24.132Z,-0.6
2018-02-21T21:14:22.620Z,-0.6
2018-02-21T21:15:21.831Z,-0.6
2018-02-21T21:16:20.722Z,-0.6
2018-02-21T21:17:19.718Z,-0.6
2018-02-21T21:17:50.155Z,-0.6
2018-02-21T21:19:17.336Z,-0.6
2018-02-21T21:20:16.623Z,-0.7
2018-02-21T21:21:15.329Z,-0.7
2018-02-21T21:22:14.215Z,-0.7
2018-02-21T21:23:13.114Z,-0.6
2018-02-21T21:24:12.511Z,-0.7
2018-02-21T21:26:10.494Z,-0.7
2018-02-21T21:28:08.274Z,-0.7
2018-02-21T21:29:07.275Z,-0.7
2018-02-21T21:30:05.994Z,-0.7
2018-02-21T21:31:05.266Z,-0.8
2018-02-21T21:32:03.964Z,-0.8
2018-02-21T21:33:02.579Z,-0.8
2018-02-21T21:34:02.080Z,-0.8
2018-02-21T21:35:00.695Z,-0.8
2018-02-21T21:35:59.513Z,-0.8
2018-02-21T21:36:58.838Z,-0.8
2018-02-21T21:37:58.045Z,-0.8
2018-02-21T21:38:56.526Z,-0.8
2018-02-21T21:39:55.636Z,-0.8
2018-02-21T21:40:54.351Z,-0.8
2018-02-21T21:41:53.350Z,-0.8
2018-02-21T21:42:52.244Z,-0.8
2018-02-21T21:43:51.349Z,-0.8
2018-02-21T21:46:48.223Z,-0.8
2018-02-21T21:47:47.222Z,-0.8
2018-02-21T21:48:46.040Z,-0.8
2018-02-21T21:49:45.262Z,-0.9
2018-02-21T21:50:43.760Z,-0.9
2018-02-21T21:51:43.136Z,-0.9
2018-02-21T21:52:41.629Z,-0.9
2018-02-21T21:53:40.668Z,-0.9
2018-02-21T21:55:38.712Z,-0.9
2018-02-21T21:56:37.332Z,-0.9
2018-02-21T21:57:36.441Z,-0.9
2018-02-21T21:58:35.270Z,-0.9
2018-02-21T21:59:34.275Z,-0.9
2018-02-21T22:00:33.305Z,-0.9
2018-02-21T22:01:32.557Z,-0.9
2018-02-21T22:02:31.165Z,-0.9
2018-02-21T22:03:30.165Z,-1
2018-02-21T22:04:29.005Z,-1
2018-02-21T22:05:27.939Z,-1
2018-02-21T22:07:25.821Z,-1
2018-02-21T22:08:24.932Z,-1.1
2018-02-21T22:10:22.815Z,-1.1
2018-02-21T22:12:20.802Z,-1.1
2018-02-21T22:13:19.304Z,-1.2
2018-02-21T22:14:18.415Z,-1.2
2018-02-21T22:16:16.613Z,-1.2
2018-02-21T22:17:15.110Z,-1.2
2018-02-21T22:18:14.110Z,-1.2
2018-02-21T22:19:13.108Z,-1.3
2018-02-21T22:20:12.217Z,-1.3
2018-02-21T22:21:11.328Z,-1.3
2018-02-21T22:22:10.032Z,-1.3
2018-02-21T22:23:09.140Z,-1.3
2018-02-21T22:24:07.739Z,-1.4
2018-02-21T22:25:06.952Z,-1.4
2018-02-21T22:29:02.814Z,-1.4
2018-02-21T22:30:01.311Z,-1.4
2018-02-21T22:31:00.531Z,-1.4
2018-02-21T22:32:58.122Z,-1.4
2018-02-21T22:33:57.340Z,-1.5
2018-02-21T22:34:56.126Z,-1.5
2018-02-21T22:35:55.337Z,-1.5
2018-02-21T22:36:54.042Z,-1.5
2018-02-21T22:37:52.866Z,-1.5
2018-02-21T22:38:51.867Z,-1.5
2018-02-21T22:39:51.193Z,-1.5
2018-02-21T22:40:49.909Z,-1.5
2018-02-21T22:41:48.654Z,-1.6
2018-02-21T22:42:47.547Z,-1.6
2018-02-21T22:43:46.545Z,-1.6
2018-02-21T22:44:45.656Z,-1.6
2018-02-21T22:45:44.150Z,-1.6
2018-02-21T22:46:43.361Z,-1.6
2018-02-21T22:47:42.584Z,-1.6
2018-02-21T22:49:40.467Z,-1.6
2018-02-21T22:50:11.002Z,-1.6
2018-02-21T22:51:38.004Z,-1.6
2018-02-21T22:52:37.336Z,-1.6
2018-02-21T22:53:36.066Z,-1.6
2018-02-21T22:54:34.962Z,-1.6
2018-02-21T22:55:34.080Z,-1.7
2018-02-21T22:56:32.588Z,-1.7
2018-02-21T22:57:31.492Z,-1.7
2018-02-21T22:58:30.882Z,-1.7
2018-02-21T22:59:29.490Z,-1.8
2018-02-21T23:00:28.702Z,-1.8
2018-02-21T23:01:27.201Z,-1.8
2018-02-21T23:02:26.535Z,-1.8
2018-02-21T23:03:25.472Z,-1.8
2018-02-21T23:05:23.358Z,-1.8
2018-02-21T23:06:22.251Z,-1.9
2018-02-21T23:07:21.368Z,-1.9
2018-02-21T23:08:19.869Z,-1.9
2018-02-21T23:09:19.082Z,-1.9
2018-02-21T23:10:17.976Z,-1.9
2018-02-21T23:11:16.680Z,-1.9
2018-02-21T23:12:15.891Z,-1.9
2018-02-21T23:13:14.603Z,-1.9
2018-02-21T23:15:12.488Z,-1.9
2018-02-21T23:16:11.600Z,-1.9
2018-02-21T23:17:10.345Z,-1.9
2018-02-21T23:18:09.059Z,-2
2018-02-21T23:19:08.064Z,-2
2018-02-21T23:20:07.384Z,-2
2018-02-21T23:21:05.995Z,-2
2018-02-21T23:24:02.561Z,-2
2018-02-21T23:25:01.790Z,-2
2018-02-21T23:26:00.788Z,-2.1
2018-02-21T23:27:00.001Z,-2.1
2018-02-21T23:27:58.501Z,-2.1
2018-02-21T23:28:57.712Z,-2.1
2018-02-21T23:29:56.309Z,-2.2
2018-02-21T23:30:26.728Z,-2.2
2018-02-21T23:31:54.412Z,-2.2
2018-02-21T23:32:53.017Z,-2.2
2018-02-21T23:34:51.190Z,-2.2
2018-02-21T23:35:49.907Z,-2.2
2018-02-21T23:36:48.899Z,-2.2
2018-02-21T23:37:48.110Z,-2.2
2018-02-21T23:38:46.816Z,-2.2
2018-02-21T23:39:45.920Z,-2.3
2018-02-21T23:40:44.529Z,-2.3
2018-02-21T23:41:43.857Z,-2.3
2018-02-21T23:42:42.457Z,-2.3
2018-02-21T23:43:41.678Z,-2.3
2018-02-21T23:45:39.279Z,-2.4
2018-02-21T23:46:38.386Z,-2.4
2018-02-21T23:47:37.196Z,-2.4
2018-02-21T23:48:36.300Z,-2.4
2018-02-21T23:49:34.800Z,-2.4
2018-02-21T23:50:33.796Z,-2.4
2018-02-21T23:52:31.572Z,-2.4
2018-02-21T23:53:30.676Z,-2.5
2018-02-21T23:54:29.788Z,-2.5
2018-02-21T23:55:28.639Z,-2.5
2018-02-21T23:56:27.740Z,-2.5
2018-02-21T23:57:26.146Z,-2.5
2018-02-21T23:58:25.264Z,-2.5
2018-02-21T23:59:24.268Z,-2.5
